Time;durP1;ratioP1;P1;durP2;ratioP2;P2;SDS_P1;SDS_P2;PMS_P1;PMS_P2;Temp;Humidity;BMP_temperature;BMP_pressure;BME280_temperature;BME280_humidity;BME280_pressure;Samples;Min_cycle;Max_cycle;Signal;HPM_P1;HPM_P2
2022/08/07 00:01:12;;;;;;;13.88;8.00;;;25.10;46.70;;;;;;5031411;28;20099;-73
2022/08/07 00:03:38;;;;;;;13.25;8.38;;;25.10;47.30;;;;;;5013724;28;20037;-74
2022/08/07 00:06:04;;;;;;;13.32;8.20;;;25.10;46.80;;;;;;5030759;28;20477;-73
2022/08/07 00:08:30;;;;;;;13.93;8.57;;;25.10;46.80;;;;;;5031837;28;20079;-74
2022/08/07 00:10:57;;;;;;;12.55;8.07;;;25.10;46.80;;;;;;5031242;28;20029;-74
2022/08/07 00:13:23;;;;;;;12.80;7.95;;;25.10;46.80;;;;;;5031432;28;20017;-74
2022/08/07 00:15:50;;;;;;;13.45;8.25;;;25.10;46.80;;;;;;5033858;28;20076;-75
2022/08/07 00:18:19;;;;;;;11.43;7.72;;;25.10;46.90;;;;;;5034696;28;20053;-74
2022/08/07 00:20:45;;;;;;;12.77;7.72;;;25.10;46.90;;;;;;5034622;28;20049;-74
2022/08/07 00:23:10;;;;;;;12.13;7.15;;;25.00;46.80;;;;;;5034475;28;20080;-74
2022/08/07 00:25:36;;;;;;;13.27;8.30;;;25.10;46.90;;;;;;5033684;28;20030;-74
2022/08/07 00:28:02;;;;;;;13.15;8.07;;;25.10;46.90;;;;;;5034380;28;20470;-74
2022/08/07 00:30:28;;;;;;;13.60;7.80;;;25.10;46.90;;;;;;5016768;28;20026;-74
2022/08/07 00:32:56;;;;;;;12.32;8.05;;;25.00;46.90;;;;;;5016810;28;20029;-74
2022/08/07 00:35:24;;;;;;;12.70;7.68;;;25.10;46.90;;;;;;5015762;28;20029;-74
2022/08/07 00:37:50;;;;;;;12.93;7.88;;;25.10;47.00;;;;;;5016707;28;20489;-74
2022/08/07 00:40:15;;;;;;;13.38;7.65;;;25.10;47.00;;;;;;5026961;22;21176;-77
2022/08/07 00:42:41;;;;;;;14.15;7.93;;;25.00;46.90;;;;;;5045858;28;20036;-77
2022/08/07 00:45:09;;;;;;;12.75;7.57;;;25.00;47.00;;;;;;5032166;28;20567;-77
2022/08/07 00:47:35;;;;;;;12.15;7.10;;;25.10;47.00;;;;;;5033093;28;20473;-77
2022/08/07 00:50:01;;;;;;;12.77;7.63;;;25.10;47.10;;;;;;5032996;28;20025;-77
2022/08/07 00:52:27;;;;;;;12.50;7.32;;;25.00;47.00;;;;;;5033341;28;20033;-77
2022/08/07 00:54:52;;;;;;;12.25;7.47;;;25.00;47.00;;;;;;5032914;28;20486;-75
2022/08/07 00:57:19;;;;;;;13.07;7.40;;;25.00;47.00;;;;;;5015424;28;20064;-75
2022/08/07 00:59:45;;;;;;;11.73;7.10;;;25.00;47.10;;;;;;5032975;28;20444;-74
2022/08/07 01:02:11;;;;;;;13.00;7.47;;;25.00;47.10;;;;;;5016493;28;20029;-75
2022/08/07 01:04:38;;;;;;;11.30;6.93;;;25.00;47.00;;;;;;5016179;28;20064;-75
2022/08/07 01:07:04;;;;;;;13.55;7.43;;;25.10;47.10;;;;;;5015373;28;20033;-75
2022/08/07 01:09:31;;;;;;;11.15;7.05;;;25.10;47.10;;;;;;5033992;28;20053;-75
2022/08/07 01:11:58;;;;;;;11.77;7.30;;;25.10;47.10;;;;;;5032374;28;20052;-75
2022/08/07 01:14:24;;;;;;;12.38;7.53;;;25.10;47.20;;;;;;5016038;28;20057;-75
2022/08/07 01:16:52;;;;;;;12.75;7.53;;;25.10;47.10;;;;;;5015234;28;20033;-75
2022/08/07 01:19:21;;;;;;;11.18;7.18;;;25.10;47.10;;;;;;5032412;28;20033;-75
2022/08/07 01:21:51;;;;;;;13.15;7.18;;;25.10;47.70;;;;;;5016318;28;20029;-75
2022/08/07 01:24:18;;;;;;;11.27;7.10;;;25.10;47.20;;;;;;5016161;28;20029;-75
2022/08/07 01:26:44;;;;;;;12.40;7.72;;;25.10;47.20;;;;;;5030528;28;20052;-75
2022/08/07 01:29:10;;;;;;;14.15;7.72;;;25.10;47.20;;;;;;5032307;28;20059;-75
2022/08/07 01:31:38;;;;;;;12.32;7.43;;;25.10;47.20;;;;;;5032119;28;20088;-75
2022/08/07 01:34:04;;;;;;;10.23;6.82;;;25.10;47.20;;;;;;5032080;28;20106;-75
2022/08/07 01:36:38;;;;;;;11.57;6.82;;;25.10;47.20;;;;;;5015982;28;20044;-75
2022/08/07 01:39:11;;;;;;;12.60;7.30;;;25.00;47.10;;;;;;5015574;28;20490;-75
2022/08/07 01:41:44;;;;;;;;;;;25.00;47.20;;;;;;5032509;28;20034;-75
2022/08/07 01:44:11;;;;;;;9.70;6.13;;;25.00;47.20;;;;;;5032005;28;19920;-75
2022/08/07 01:46:40;;;;;;;12.20;7.20;;;25.00;47.20;;;;;;5031096;28;20028;-75
2022/08/07 01:49:07;;;;;;;11.65;7.30;;;25.00;47.20;;;;;;5015559;28;20083;-75
2022/08/07 01:51:35;;;;;;;11.48;6.65;;;25.00;47.20;;;;;;5015566;28;20033;-75
2022/08/07 01:54:06;;;;;;;11.75;7.38;;;25.00;47.30;;;;;;5031872;28;20033;-75
2022/08/07 01:56:52;;;;;;;11.05;6.82;;;25.00;47.30;;;;;;5032213;28;20481;-75
2022/08/07 01:59:27;;;;;;;11.73;7.07;;;25.00;47.30;;;;;;5015421;28;20037;-75
2022/08/07 02:02:01;;;;;;;10.90;6.20;;;25.00;47.30;;;;;;5031643;28;20057;-75
2022/08/07 02:04:41;;;;;;;10.38;6.60;;;25.00;47.40;;;;;;5031696;28;20056;-75
2022/08/07 02:07:10;;;;;;;11.23;6.80;;;25.00;47.40;;;;;;5030779;28;20041;-75
2022/08/07 02:09:39;;;;;;;12.05;6.88;;;25.00;47.30;;;;;;5031696;28;20040;-75
2022/08/07 02:12:16;;;;;;;11.63;6.97;;;25.00;47.40;;;;;;5031417;28;20033;-76
2022/08/07 02:14:52;;;;;;;11.35;6.78;;;25.00;47.40;;;;;;5031439;28;20072;-75
2022/08/07 02:17:25;;;;;;;9.73;6.05;;;25.00;47.50;;;;;;5014157;28;20489;-74
2022/08/07 02:19:53;;;;;;;10.88;6.70;;;25.00;47.50;;;;;;4998603;28;20045;-75
2022/08/07 02:22:22;;;;;;;9.95;6.45;;;25.00;47.50;;;;;;5015077;28;20049;-75
2022/08/07 02:24:51;;;;;;;10.25;6.18;;;25.00;47.40;;;;;;5031066;28;20091;-75
2022/08/07 02:27:21;;;;;;;12.18;6.60;;;25.00;47.50;;;;;;5030476;28;20080;-75
2022/08/07 02:29:49;;;;;;;11.55;6.60;;;25.00;47.50;;;;;;5014846;28;20044;-75
2022/08/07 02:32:18;;;;;;;10.32;6.35;;;25.00;47.50;;;;;;4998816;28;20083;-75
2022/08/07 02:34:47;;;;;;;9.00;5.88;;;25.00;47.50;;;;;;5014600;28;20493;-75
2022/08/07 02:37:14;;;;;;;9.35;5.90;;;25.00;47.50;;;;;;5029978;28;20026;-75
2022/08/07 02:39:45;;;;;;;10.30;5.80;;;25.00;47.60;;;;;;5014590;28;20029;-76
2022/08/07 02:42:17;;;;;;;10.68;6.18;;;25.00;47.60;;;;;;5030991;28;20041;-76
2022/08/07 02:44:49;;;;;;;10.25;6.25;;;25.00;47.60;;;;;;5032069;28;20034;-76
2022/08/07 02:47:20;;;;;;;10.23;5.95;;;25.00;47.60;;;;;;5030079;28;20025;-76
2022/08/07 02:49:49;;;;;;;11.00;6.18;;;25.00;47.60;;;;;;5030771;28;20029;-76
2022/08/07 02:52:21;;;;;;;11.32;6.47;;;25.00;47.60;;;;;;5030845;28;20025;-75
2022/08/07 02:54:49;;;;;;;9.48;5.82;;;25.00;47.60;;;;;;5030897;28;20025;-76
2022/08/07 02:57:20;;;;;;;10.43;6.20;;;25.00;47.60;;;;;;5029940;28;20029;-76
2022/08/07 02:59:49;;;;;;;10.50;6.13;;;25.00;47.60;;;;;;5030753;28;20025;-76
2022/08/07 03:02:17;;;;;;;9.52;6.00;;;25.00;47.60;;;;;;5030719;28;20478;-76
2022/08/07 03:04:45;;;;;;;10.57;6.05;;;25.00;47.60;;;;;;5030714;28;20155;-76
2022/08/07 03:07:11;;;;;;;10.48;6.18;;;25.00;47.60;;;;;;5013618;28;20029;-76
2022/08/07 03:09:41;;;;;;;9.40;5.35;;;25.00;47.60;;;;;;5030638;28;20073;-76
2022/08/07 03:12:08;;;;;;;9.88;5.75;;;25.00;47.60;;;;;;5030915;28;20026;-75
2022/08/07 03:14:38;;;;;;;10.10;5.20;;;25.00;47.60;;;;;;5014551;28;20121;-76
2022/08/07 03:17:05;;;;;;;10.00;5.60;;;25.00;47.60;;;;;;5013201;28;20108;-76
2022/08/07 03:19:33;;;;;;;13.15;6.55;;;25.00;47.60;;;;;;5014262;28;20042;-75
2022/08/07 03:22:03;;;;;;;8.48;5.43;;;25.00;47.70;;;;;;5030362;28;20041;-75
2022/08/07 03:24:29;;;;;;;9.57;6.00;;;25.00;47.70;;;;;;5030343;28;20042;-75
2022/08/07 03:27:02;;;;;;;9.00;5.50;;;25.00;47.70;;;;;;5030965;28;20112;-76
2022/08/07 03:29:46;;;;;;;10.25;6.18;;;25.00;47.70;;;;;;5030621;28;20428;-76
2022/08/07 03:32:14;;;;;;;9.15;5.75;;;25.00;47.70;;;;;;5014048;28;20034;-75
2022/08/07 03:34:43;;;;;;;10.50;5.88;;;25.00;47.70;;;;;;5030318;28;20037;-76
2022/08/07 03:37:11;;;;;;;10.23;5.83;;;25.00;47.70;;;;;;5029416;28;20044;-76
2022/08/07 03:39:38;;;;;;;9.82;5.82;;;24.90;47.70;;;;;;5030292;28;20032;-75
2022/08/07 03:42:05;;;;;;;11.98;6.10;;;24.90;47.70;;;;;;5030088;28;20029;-76
2022/08/07 03:44:34;;;;;;;9.18;5.72;;;25.00;47.80;;;;;;5030322;28;20096;-76
2022/08/07 03:47:01;;;;;;;9.77;6.03;;;24.90;47.70;;;;;;5013061;28;20086;-75
2022/08/07 03:49:28;;;;;;;10.73;6.00;;;24.90;47.80;;;;;;5015637;28;20501;-76
2022/08/07 03:51:55;;;;;;;10.85;6.20;;;24.90;47.70;;;;;;5033784;28;20040;-76
2022/08/07 03:54:22;;;;;;;8.90;5.28;;;24.90;47.80;;;;;;5033889;28;20073;-75
2022/08/07 03:56:49;;;;;;;9.27;5.75;;;25.00;47.90;;;;;;5033148;28;20481;-75
2022/08/07 03:59:16;;;;;;;8.70;5.20;;;25.00;47.80;;;;;;5017335;28;20478;-76
2022/08/07 04:01:45;;;;;;;9.48;5.50;;;24.90;47.80;;;;;;5033861;28;20029;-75
2022/08/07 04:04:12;;;;;;;8.68;5.32;;;24.90;47.90;;;;;;5017095;28;20536;-75
2022/08/07 04:06:42;;;;;;;8.30;5.22;;;24.90;47.80;;;;;;5016462;28;20072;-75
2022/08/07 04:09:14;;;;;;;9.65;5.68;;;24.90;48.40;;;;;;5017862;28;20040;-75
2022/08/07 04:11:43;;;;;;;9.52;5.55;;;24.90;47.80;;;;;;5017389;28;20022;-75
2022/08/07 04:14:10;;;;;;;8.95;5.35;;;24.90;47.90;;;;;;5033746;28;20045;-75
2022/08/07 04:16:37;;;;;;;8.15;5.03;;;24.90;47.90;;;;;;5032629;28;20555;-75
2022/08/07 04:19:03;;;;;;;9.27;5.32;;;24.90;47.90;;;;;;5033626;28;20083;-75
2022/08/07 04:21:31;;;;;;;9.52;5.75;;;24.90;47.90;;;;;;5033296;28;20025;-75
2022/08/07 04:23:57;;;;;;;7.68;4.82;;;24.90;47.90;;;;;;5000707;28;20036;-76
2022/08/07 04:26:23;;;;;;;9.63;5.75;;;24.90;47.90;;;;;;5016065;28;20025;-76
2022/08/07 04:28:49;;;;;;;8.88;5.45;;;24.90;47.90;;;;;;5016981;28;20437;-76
2022/08/07 04:31:16;;;;;;;9.85;5.68;;;24.90;47.90;;;;;;5016834;28;20033;-76
2022/08/07 04:33:44;;;;;;;9.50;5.70;;;24.90;47.90;;;;;;5033347;28;20037;-75
2022/08/07 04:36:13;;;;;;;9.15;5.63;;;24.90;47.90;;;;;;5032299;28;20100;-75
2022/08/07 04:38:39;;;;;;;8.80;5.20;;;24.90;47.90;;;;;;5033100;28;20148;-75
2022/08/07 04:41:06;;;;;;;9.10;5.40;;;24.90;47.90;;;;;;5016535;28;20084;-76
2022/08/07 04:43:45;;;;;;;8.63;5.13;;;25.00;47.90;;;;;;5033177;28;20095;-75
2022/08/07 04:46:45;;;;;;;8.95;5.65;;;25.00;47.90;;;;;;5032378;28;20029;-75
2022/08/07 04:49:26;;;;;;;8.30;5.18;;;25.00;48.00;;;;;;5034151;28;20021;-75
2022/08/07 04:52:05;;;;;;;9.60;5.47;;;25.00;48.00;;;;;;5032705;28;20528;-75
2022/08/07 04:54:38;;;;;;;10.38;5.35;;;25.00;48.00;;;;;;5032858;28;20121;-75
2022/08/07 04:57:33;;;;;;;9.73;5.85;;;25.00;48.00;;;;;;5032097;28;20043;-75
2022/08/07 05:00:15;;;;;;;8.65;5.32;;;25.00;48.00;;;;;;5016061;28;20052;-75
2022/08/07 05:03:04;;;;;;;9.05;5.20;;;24.90;48.00;;;;;;5002917;28;20398;-76
2022/08/07 05:06:08;;;;;;;9.00;5.03;;;24.90;48.00;;;;;;5005048;28;20033;-75
2022/08/07 05:09:00;;;;;;;8.60;5.10;;;24.90;48.00;;;;;;4952311;29;20050;-76
2022/08/07 05:11:35;;;;;;;7.93;5.28;;;24.90;48.00;;;;;;5011813;28;20038;-76
2022/08/07 05:14:09;;;;;;;8.10;4.97;;;24.90;48.00;;;;;;5012695;28;20036;-77
2022/08/07 05:16:38;;;;;;;8.07;5.13;;;24.90;48.10;;;;;;5012853;28;20029;-77
2022/08/07 05:19:12;;;;;;;8.18;4.97;;;24.90;48.00;;;;;;4996237;28;20426;-76
2022/08/07 05:21:46;;;;;;;7.85;5.03;;;24.90;48.10;;;;;;5013666;28;20121;-76
2022/08/07 05:24:16;;;;;;;7.95;4.78;;;24.90;48.00;;;;;;4996174;28;20112;-76
2022/08/07 05:26:43;;;;;;;9.13;5.07;;;24.90;48.10;;;;;;5013164;28;20025;-76
2022/08/07 05:29:12;;;;;;;8.30;5.28;;;24.90;48.10;;;;;;5012357;28;20506;-76
2022/08/07 05:31:40;;;;;;;7.27;4.67;;;24.90;48.10;;;;;;5012201;28;20058;-77
2022/08/07 05:34:14;;;;;;;9.77;5.35;;;24.90;48.10;;;;;;4996222;28;20065;-76
2022/08/07 05:36:45;;;;;;;7.95;5.03;;;24.90;48.10;;;;;;4995377;28;20050;-76
2022/08/07 05:39:21;;;;;;;9.02;5.07;;;24.90;48.10;;;;;;4996052;28;20034;-76
2022/08/07 05:41:49;;;;;;;;;;;24.90;48.10;;;;;;5012584;28;20101;-76
2022/08/07 05:44:19;;;;;;;8.45;5.10;;;24.90;48.10;;;;;;5011553;28;20405;-76
2022/08/07 05:46:50;;;;;;;8.20;5.00;;;24.90;48.10;;;;;;5011277;28;20153;-76
2022/08/07 05:49:20;;;;;;;9.02;5.13;;;24.90;48.10;;;;;;4995856;28;20072;-76
2022/08/07 05:51:47;;;;;;;8.52;5.13;;;24.90;48.10;;;;;;4996190;28;20034;-75
2022/08/07 05:54:17;;;;;;;8.38;5.13;;;24.90;48.10;;;;;;4979987;28;20111;-75
2022/08/07 05:56:45;;;;;;;7.20;4.70;;;24.90;48.10;;;;;;5011647;28;20026;-75
2022/08/07 05:59:17;;;;;;;8.85;5.22;;;24.90;48.10;;;;;;5013526;28;20038;-76
2022/08/07 06:01:48;;;;;;;7.97;4.68;;;24.90;48.10;;;;;;5012463;28;20034;-75
2022/08/07 06:04:18;;;;;;;8.95;5.22;;;24.90;48.10;;;;;;5012698;28;20108;-75
2022/08/07 06:06:44;;;;;;;8.48;4.88;;;25.00;48.20;;;;;;5011404;28;20391;-76
2022/08/07 06:09:11;;;;;;;7.22;4.68;;;24.90;48.10;;;;;;4996216;28;20037;-75
2022/08/07 06:11:44;;;;;;;8.77;4.68;;;25.00;48.10;;;;;;5011515;28;20489;-75
2022/08/07 06:14:11;;;;;;;7.90;4.78;;;25.00;48.20;;;;;;4995707;28;20084;-75
2022/08/07 06:16:38;;;;;;;9.27;5.25;;;25.00;48.10;;;;;;5011349;28;20038;-75
2022/08/07 06:19:05;;;;;;;7.03;4.70;;;25.00;48.10;;;;;;5011838;28;20053;-75
2022/08/07 06:21:34;;;;;;;7.35;4.68;;;25.00;48.10;;;;;;5011844;28;20030;-75
2022/08/07 06:24:02;;;;;;;9.50;4.90;;;25.00;48.10;;;;;;5011988;28;20109;-75
2022/08/07 06:26:28;;;;;;;7.70;4.55;;;25.00;48.00;;;;;;5011273;28;20080;-75
2022/08/07 06:28:58;;;;;;;8.20;4.75;;;25.00;48.10;;;;;;5011567;28;20540;-75
2022/08/07 06:31:26;;;;;;;7.88;5.00;;;25.00;48.10;;;;;;5011768;28;20037;-76
2022/08/07 06:33:53;;;;;;;7.28;4.82;;;25.00;48.10;;;;;;5012803;28;20487;-75
2022/08/07 06:36:19;;;;;;;9.23;5.50;;;25.00;48.10;;;;;;5010903;28;20548;-76
2022/08/07 06:38:53;;;;;;;7.72;4.80;;;25.00;48.10;;;;;;5012821;28;20430;-75
2022/08/07 06:41:30;;;;;;;8.32;5.03;;;25.00;48.10;;;;;;5015769;23;20499;-75
2022/08/07 06:43:58;;;;;;;7.45;4.43;;;25.00;48.10;;;;;;4957462;28;20121;-76
2022/08/07 06:46:24;;;;;;;9.18;5.38;;;25.00;48.10;;;;;;4990626;28;20088;-76
2022/08/07 06:48:52;;;;;;;9.57;5.13;;;25.00;48.10;;;;;;4991385;28;20026;-75
2022/08/07 06:51:25;;;;;;;8.13;5.20;;;25.00;48.10;;;;;;4975326;28;20053;-75
2022/08/07 06:53:53;;;;;;;8.80;5.32;;;25.00;48.10;;;;;;4991454;28;20031;-76
2022/08/07 06:56:38;;;;;;;7.75;4.95;;;25.00;48.10;;;;;;4990557;28;20034;-76
2022/08/07 06:59:21;;;;;;;8.27;4.93;;;25.00;48.00;;;;;;4991326;28;20038;-76
2022/08/07 07:01:56;;;;;;;10.30;5.10;;;25.00;48.00;;;;;;4991529;28;20394;-76
2022/08/07 07:04:23;;;;;;;8.77;5.00;;;25.00;48.00;;;;;;4991220;28;20399;-76
2022/08/07 07:06:49;;;;;;;9.38;5.38;;;25.00;48.00;;;;;;4990530;28;20037;-76
2022/08/07 07:09:18;;;;;;;8.73;4.97;;;25.00;48.00;;;;;;4991198;28;20084;-76
2022/08/07 07:12:05;;;;;;;7.73;5.13;;;25.00;48.00;;;;;;4992532;28;20026;-76
2022/08/07 07:15:02;;;;;;;7.93;4.80;;;25.00;48.10;;;;;;4992471;28;20034;-75
2022/08/07 07:17:32;;;;;;;7.68;4.85;;;25.00;48.10;;;;;;4991617;28;20034;-76
2022/08/07 07:20:01;;;;;;;7.60;4.70;;;25.00;48.10;;;;;;4992294;28;20037;-76
2022/08/07 07:22:28;;;;;;;7.70;4.50;;;25.00;48.10;;;;;;4992520;28;20037;-76
2022/08/07 07:24:55;;;;;;;6.68;4.57;;;25.00;48.10;;;;;;4995269;28;20077;-76
2022/08/07 07:27:24;;;;;;;8.98;5.05;;;25.00;48.10;;;;;;4978264;28;20121;-76
2022/08/07 07:29:55;;;;;;;7.32;4.22;;;25.00;48.10;;;;;;4995315;28;20053;-76
2022/08/07 07:32:23;;;;;;;7.40;4.38;;;25.00;48.10;;;;;;4994853;28;20022;-75
2022/08/07 07:34:55;;;;;;;7.70;4.60;;;25.10;48.20;;;;;;4994972;28;20079;-75
2022/08/07 07:37:24;;;;;;;7.38;4.75;;;25.00;48.20;;;;;;4995427;28;20026;-75
2022/08/07 07:39:54;;;;;;;9.15;4.85;;;25.00;48.10;;;;;;4995213;28;20035;-75
2022/08/07 07:42:22;;;;;;;7.28;4.50;;;25.00;48.30;;;;;;4995687;28;20031;-75
2022/08/07 07:44:49;;;;;;;7.93;4.68;;;25.00;48.30;;;;;;4995840;28;20376;-75
2022/08/07 07:47:16;;;;;;;7.20;4.30;;;25.10;48.30;;;;;;4995811;28;20430;-75
2022/08/07 07:49:44;;;;;;;7.13;4.38;;;25.00;48.20;;;;;;4996873;28;20376;-74
2022/08/07 07:52:11;;;;;;;7.13;4.47;;;25.10;48.30;;;;;;4996120;28;20117;-74
2022/08/07 07:54:40;;;;;;;8.50;4.50;;;25.10;48.30;;;;;;4995042;28;20038;-74
2022/08/07 07:57:07;;;;;;;7.18;4.55;;;25.10;48.30;;;;;;4978166;28;20038;-75
2022/08/07 07:59:35;;;;;;;7.25;4.40;;;25.10;48.30;;;;;;4994610;28;20561;-74
2022/08/07 08:02:02;;;;;;;6.53;4.07;;;25.10;48.30;;;;;;4996814;28;20053;-74
2022/08/07 08:04:30;;;;;;;7.88;4.57;;;25.10;48.40;;;;;;4997039;28;20042;-75
2022/08/07 08:06:57;;;;;;;7.15;4.25;;;25.10;48.40;;;;;;4995987;28;20030;-74
2022/08/07 08:09:25;;;;;;;6.55;4.32;;;25.10;48.40;;;;;;4996497;28;20033;-75
2022/08/07 08:11:53;;;;;;;7.05;4.55;;;25.10;48.40;;;;;;4994553;28;20080;-75
2022/08/07 08:14:19;;;;;;;7.18;3.95;;;25.10;48.40;;;;;;4994228;28;20029;-75
2022/08/07 08:16:45;;;;;;;7.43;4.50;;;25.10;48.40;;;;;;4994822;28;20041;-75
2022/08/07 08:19:15;;;;;;;7.47;4.55;;;25.10;48.50;;;;;;4994182;28;20117;-75
2022/08/07 08:27:20;;;;;;;6.70;4.15;;;25.10;48.60;;;;;;4994486;28;20026;-75
2022/08/07 08:29:53;;;;;;;6.85;4.03;;;25.10;48.60;;;;;;4977953;28;20038;-75
2022/08/07 08:32:25;;;;;;;7.78;4.00;;;25.10;48.60;;;;;;4994982;28;20175;-75
2022/08/07 08:34:53;;;;;;;7.10;4.30;;;25.10;48.60;;;;;;4994408;28;20549;-75
2022/08/07 08:37:24;;;;;;;8.38;4.15;;;25.10;48.60;;;;;;4994324;28;20052;-75
2022/08/07 08:39:54;;;;;;;7.78;4.60;;;25.10;48.60;;;;;;4994977;28;20035;-75
2022/08/07 08:42:32;;;;;;;7.88;4.80;;;25.10;48.70;;;;;;4993570;28;20585;-76
2022/08/07 08:45:12;;;;;;;6.97;4.10;;;25.10;48.70;;;;;;4994720;28;20046;-76
2022/08/07 08:48:12;;;;;;;5.57;3.40;;;25.10;48.70;;;;;;4994864;28;20022;-74
2022/08/07 08:50:46;;;;;;;6.65;3.97;;;25.10;48.80;;;;;;4994605;28;20038;-76
2022/08/07 08:53:19;;;;;;;6.55;4.00;;;25.10;48.80;;;;;;4994956;28;20447;-75
2022/08/07 08:55:56;;;;;;;7.07;4.00;;;25.10;48.80;;;;;;4976380;28;20479;-75
2022/08/07 08:58:52;;;;;;;6.60;4.00;;;25.10;48.80;;;;;;4994614;28;20089;-75
2022/08/07 09:01:29;;;;;;;6.78;4.35;;;25.10;48.90;;;;;;4994421;28;20034;-75
2022/08/07 09:04:05;;;;;;;6.38;4.07;;;25.10;48.80;;;;;;4994470;28;20030;-75
2022/08/07 09:06:58;;;;;;;7.00;4.00;;;25.10;48.80;;;;;;4993920;28;20062;-75
2022/08/07 09:09:40;;;;;;;7.22;4.30;;;25.10;48.80;;;;;;4993236;28;20030;-76
2022/08/07 09:12:39;;;;;;;8.95;3.88;;;25.10;48.90;;;;;;4993060;28;20458;-75
2022/08/07 09:15:11;;;;;;;6.03;3.78;;;25.10;48.90;;;;;;4994375;28;20416;-76
2022/08/07 09:17:43;;;;;;;5.45;3.65;;;25.10;49.00;;;;;;4994322;28;20041;-75
2022/08/07 09:20:29;;;;;;;6.15;4.00;;;25.10;49.00;;;;;;4994379;28;20454;-76
2022/08/07 09:23:12;;;;;;;6.90;3.97;;;25.10;48.90;;;;;;4994198;28;20085;-75
2022/08/07 09:25:48;;;;;;;5.95;3.75;;;25.10;49.00;;;;;;4993272;28;20038;-76
2022/08/07 09:28:39;;;;;;;6.30;3.80;;;25.10;49.10;;;;;;4994208;28;20069;-75
2022/08/07 09:31:31;;;;;;;5.57;3.90;;;25.00;49.10;;;;;;4971777;28;20042;-75
2022/08/07 09:34:24;;;;;;;5.68;3.72;;;25.00;49.20;;;;;;4976963;28;20042;-75
2022/08/07 09:37:03;;;;;;;6.13;3.78;;;25.00;49.20;;;;;;4993142;28;20116;-74
2022/08/07 09:39:38;;;;;;;6.15;3.53;;;25.00;49.30;;;;;;4993892;28;20372;-75
2022/08/07 09:42:32;;;;;;;6.13;3.90;;;25.10;49.20;;;;;;4993812;28;20042;-75
2022/08/07 09:45:11;;;;;;;6.22;3.50;;;25.10;49.10;;;;;;4993718;28;20105;-74
2022/08/07 09:48:18;;;;;;;6.43;3.90;;;25.10;49.10;;;;;;4992820;28;20038;-75
2022/08/07 09:50:56;;;;;;;6.07;3.92;;;25.10;49.10;;;;;;4992528;28;20030;-75
2022/08/07 09:53:24;;;;;;;6.40;4.00;;;25.10;49.00;;;;;;4992442;28;20050;-75
2022/08/07 09:56:15;;;;;;;6.30;3.90;;;25.10;49.00;;;;;;4991849;28;20030;-75
2022/08/07 09:59:05;;;;;;;5.32;3.15;;;25.10;49.00;;;;;;4992289;28;20038;-75
2022/08/07 10:01:46;;;;;;;5.63;3.80;;;25.10;48.90;;;;;;4993537;28;20030;-75
2022/08/07 10:04:52;;;;;;;5.38;3.30;;;25.10;48.90;;;;;;4993414;28;20031;-75
2022/08/07 10:07:32;;;;;;;6.15;3.75;;;25.10;48.90;;;;;;4992738;28;20033;-75
2022/08/07 10:10:42;;;;;;;5.10;3.42;;;25.10;49.00;;;;;;4993294;28;20026;-75
2022/08/07 10:13:21;;;;;;;5.22;3.50;;;25.10;49.00;;;;;;4976978;28;20070;-74
2022/08/07 10:16:21;;;;;;;5.68;3.63;;;25.10;48.90;;;;;;4991388;28;20041;-74
2022/08/07 10:19:26;;;;;;;5.20;3.00;;;25.10;48.90;;;;;;4993197;28;20034;-74
2022/08/07 10:22:26;;;;;;;6.47;3.67;;;25.10;49.00;;;;;;4952034;29;20038;-73
2022/08/07 10:25:02;;;;;;;;;;;25.10;49.00;;;;;;4952435;29;20039;-74
2022/08/07 10:27:40;;;;;;;4.75;3.10;;;25.10;49.00;;;;;;4977759;28;20289;-74
2022/08/07 10:30:14;;;;;;;5.10;3.40;;;25.10;49.10;;;;;;4992846;28;20088;-74
2022/08/07 10:32:55;;;;;;;4.90;3.20;;;25.10;49.10;;;;;;4991947;28;20399;-74
2022/08/07 10:35:39;;;;;;;5.03;3.08;;;25.00;49.10;;;;;;4992109;28;20447;-74
2022/08/07 10:38:36;;;;;;;6.20;3.40;;;25.00;49.10;;;;;;4991839;28;20027;-74
2022/08/07 10:41:07;;;;;;;6.13;3.55;;;25.00;49.30;;;;;;4991669;28;20089;-74
2022/08/07 10:43:42;;;;;;;5.47;3.60;;;25.00;49.30;;;;;;4992621;28;20034;-75
2022/08/07 10:46:25;;;;;;;5.90;3.50;;;25.00;49.30;;;;;;4991869;28;20033;-75
2022/08/07 10:49:30;;;;;;;5.20;3.45;;;25.00;49.20;;;;;;4993281;28;20026;-74
2022/08/07 10:52:04;;;;;;;5.85;3.88;;;25.00;49.30;;;;;;4987824;28;20034;-75
2022/08/07 10:54:50;;;;;;;5.38;3.50;;;25.00;49.30;;;;;;4992549;28;20038;-74
2022/08/07 10:57:30;;;;;;;5.22;3.42;;;25.00;49.30;;;;;;4990431;28;20479;-75
2022/08/07 11:00:08;;;;;;;5.72;3.58;;;25.00;49.30;;;;;;4991504;28;20030;-75
2022/08/07 11:02:40;;;;;;;5.13;3.22;;;25.10;49.90;;;;;;4992916;28;20053;-76
2022/08/07 11:05:35;;;;;;;4.85;3.00;;;25.00;49.30;;;;;;4990697;28;20034;-75
2022/08/07 11:08:22;;;;;;;5.88;3.35;;;25.00;49.30;;;;;;4987888;28;20506;-75
2022/08/07 11:10:58;;;;;;;5.55;3.38;;;25.00;49.30;;;;;;4992447;28;20053;-75
2022/08/07 11:13:33;;;;;;;5.15;3.30;;;25.00;49.90;;;;;;4992407;28;20030;-75
2022/08/07 11:16:07;;;;;;;5.32;3.40;;;25.00;49.30;;;;;;4991611;28;20088;-75
2022/08/07 11:18:50;;;;;;;5.50;3.17;;;25.00;49.30;;;;;;4991317;28;20610;-73
2022/08/07 11:21:31;;;;;;;5.47;3.55;;;25.00;49.30;;;;;;4992749;28;20053;-73
2022/08/07 11:24:28;;;;;;;5.30;3.28;;;25.00;49.30;;;;;;4991034;28;20034;-75
2022/08/07 11:27:28;;;;;;;5.93;3.28;;;25.00;49.30;;;;;;4990341;28;20364;-74
2022/08/07 11:30:05;;;;;;;5.03;3.30;;;25.00;49.20;;;;;;4992527;28;20022;-74
2022/08/07 11:32:42;;;;;;;4.38;3.08;;;25.00;49.30;;;;;;4992674;28;20030;-74
2022/08/07 11:35:21;;;;;;;4.90;3.20;;;25.00;49.30;;;;;;4990240;28;20113;-73
2022/08/07 11:38:03;;;;;;;5.63;3.23;;;25.00;49.30;;;;;;4992246;28;20509;-74
2022/08/07 11:40:42;;;;;;;4.40;2.92;;;25.00;49.30;;;;;;4992087;28;20033;-75
2022/08/07 11:43:20;;;;;;;5.32;3.10;;;25.00;49.30;;;;;;4992112;28;20061;-75
2022/08/07 11:46:24;;;;;;;5.47;3.30;;;25.00;49.30;;;;;;4991413;28;20066;-75
2022/08/07 11:48:52;;;;;;;5.00;3.13;;;25.00;49.30;;;;;;4992216;28;20027;-75
2022/08/07 11:51:46;;;;;;;5.13;3.08;;;25.00;49.30;;;;;;4991948;28;20022;-75
2022/08/07 11:54:17;;;;;;;5.60;3.40;;;25.00;49.30;;;;;;4992089;28;20038;-75
2022/08/07 11:57:11;;;;;;;4.68;2.92;;;25.00;49.40;;;;;;4989933;28;20092;-74
2022/08/07 12:00:04;;;;;;;5.38;3.58;;;25.00;49.30;;;;;;4990921;28;20458;-74
2022/08/07 12:02:57;;;;;;;5.25;3.10;;;25.00;49.50;;;;;;4991993;28;20031;-74
2022/08/07 12:05:28;;;;;;;;;;;25.00;49.50;;;;;;4990322;28;20038;-75
2022/08/07 12:08:07;;;;;;;4.45;2.90;;;25.00;49.40;;;;;;4991954;28;19910;-74
2022/08/07 12:10:43;;;;;;;5.33;3.27;;;25.00;49.40;;;;;;4993752;28;20479;-74
2022/08/07 12:13:34;;;;;;;5.15;3.03;;;25.00;49.40;;;;;;4995574;28;20032;-75
2022/08/07 12:16:16;;;;;;;4.53;3.13;;;25.00;49.40;;;;;;4994855;28;20073;-75
2022/08/07 12:19:21;;;;;;;5.30;3.28;;;25.00;49.40;;;;;;4995412;28;20053;-74
2022/08/07 12:22:03;;;;;;;4.22;2.83;;;25.00;49.50;;;;;;4995339;28;20037;-75
2022/08/07 12:27:52;;;;;;;4.68;3.03;;;25.00;49.40;;;;;;4992608;28;20053;-75
2022/08/07 12:30:22;;;;;;;4.97;3.05;;;25.00;49.40;;;;;;4995114;28;20093;-75
2022/08/07 12:33:00;;;;;;;5.47;3.17;;;25.00;49.40;;;;;;4977839;28;20057;-74
2022/08/07 12:35:27;;;;;;;4.85;3.10;;;25.00;49.50;;;;;;4993363;28;20034;-75
2022/08/07 12:37:54;;;;;;;4.45;2.78;;;25.00;49.50;;;;;;4995066;28;20036;-75
2022/08/07 12:40:25;;;;;;;4.07;2.60;;;25.00;49.50;;;;;;4993647;28;20430;-74
2022/08/07 12:42:52;;;;;;;5.70;3.38;;;25.00;49.60;;;;;;4995023;28;20034;-75
2022/08/07 12:45:30;;;;;;;5.35;3.38;;;25.00;49.50;;;;;;4994597;28;20058;-74
2022/08/07 12:48:12;;;;;;;4.65;3.08;;;25.00;49.60;;;;;;4994888;28;20109;-74
2022/08/07 12:50:53;;;;;;;4.88;2.95;;;25.00;49.60;;;;;;4977654;28;20038;-75
2022/08/07 12:53:43;;;;;;;5.38;3.15;;;25.00;49.70;;;;;;4961456;28;20030;-75
2022/08/07 12:56:24;;;;;;;4.85;2.95;;;25.00;49.60;;;;;;4976696;28;20031;-74
2022/08/07 12:58:51;;;;;;;4.28;2.95;;;24.90;49.60;;;;;;4994636;28;20030;-74
2022/08/07 13:01:28;;;;;;;5.03;3.05;;;24.90;49.60;;;;;;4994590;28;20133;-74
2022/08/07 13:03:56;;;;;;;;;;;25.00;49.60;;;;;;4993821;28;20046;-74
2022/08/07 13:06:50;;;;;;;4.28;2.65;;;25.00;49.60;;;;;;4994098;28;19910;-74
2022/08/07 13:09:52;;;;;;;3.83;2.53;;;25.00;49.50;;;;;;4977343;28;20101;-76
2022/08/07 13:12:27;;;;;;;4.72;2.90;;;25.00;49.60;;;;;;4993180;28;20057;-75
2022/08/07 13:15:31;;;;;;;4.88;2.92;;;25.00;49.60;;;;;;4994308;28;20105;-76
2022/08/07 13:18:29;;;;;;;5.07;2.47;;;25.00;49.50;;;;;;4994341;28;20027;-76
2022/08/07 13:21:01;;;;;;;4.43;3.13;;;25.00;49.40;;;;;;4971808;28;20121;-76
2022/08/07 13:23:57;;;;;;;4.50;2.92;;;25.00;49.50;;;;;;4992964;28;20478;-76
2022/08/07 13:26:48;;;;;;;4.32;3.00;;;25.00;49.50;;;;;;4993327;28;20034;-75
2022/08/07 13:29:25;;;;;;;4.72;2.70;;;25.00;49.60;;;;;;4993080;28;20031;-75
2022/08/07 13:31:58;;;;;;;4.97;2.67;;;25.00;49.40;;;;;;4994059;28;20471;-75